Terminal Aerodrome Forecast
Issued by NWS Sterling, VA

Current Version | Previous Version | Graphics & Text | Print | Product List | Glossary On
Versions: 1 2 3 4 5 6 7 8 9 10 11 12 13 14 15 16
271
FTUS41 KLWX 240523
TAFMRB
TAF
KMRB 240523Z 2406/2506 33004KT P6SM FEW070
     FM240900 36005KT P6SM BKN070
     FM241200 01005KT P6SM OVC025
     FM241800 02006KT P6SM SCT035
     FM250000 02004KT P6SM SCT150=

USA.gov is the U.S. government's official web portal to all federal, state and local government web resources and services.